createdAt,value
2023-04-23T00:01:59.446Z,6.72
2023-04-23T00:04:28.999Z,4.65
2023-04-23T00:06:56.027Z,5.40
2023-04-23T00:09:24.007Z,5.55
2023-04-23T00:11:51.016Z,6.00
2023-04-23T00:14:17.731Z,4.75
2023-04-23T00:16:44.869Z,5.15
2023-04-23T00:19:11.750Z,4.85
2023-04-23T00:21:38.342Z,5.28
2023-04-23T00:24:05.329Z,5.68
2023-04-23T00:26:32.088Z,5.22
2023-04-23T00:28:58.732Z,6.68
2023-04-23T00:31:27.265Z,6.03
2023-04-23T00:33:54.235Z,4.82
2023-04-23T00:36:20.840Z,5.47
2023-04-23T00:38:48.121Z,6.50
2023-04-23T00:41:15.378Z,5.38
2023-04-23T00:43:42.100Z,5.50
2023-04-23T00:46:09.140Z,7.40
2023-04-23T00:48:36.431Z,7.15
2023-04-23T00:51:06.726Z,5.25
2023-04-23T00:53:34.120Z,4.75
2023-04-23T00:56:02.267Z,4.95
2023-04-23T00:58:29.981Z,4.30
2023-04-23T01:00:57.932Z,5.18
2023-04-23T01:03:27.049Z,6.15
2023-04-23T01:05:53.960Z,6.22
2023-04-23T01:08:23.618Z,5.28
2023-04-23T01:10:50.878Z,5.80
2023-04-23T01:13:17.738Z,5.35
2023-04-23T01:15:45.384Z,5.18
2023-04-23T01:18:12.882Z,4.80
2023-04-23T01:20:39.791Z,5.18
2023-04-23T01:23:07.186Z,5.55
2023-04-23T01:25:34.656Z,4.63
2023-04-23T01:28:01.695Z,4.57
2023-04-23T01:30:29.044Z,5.45
2023-04-23T01:32:56.674Z,4.95
2023-04-23T01:35:24.420Z,6.10
2023-04-23T01:37:54.825Z,5.63
2023-04-23T01:40:21.854Z,5.72
2023-04-23T01:42:49.187Z,4.28
2023-04-23T01:45:17.695Z,4.70
2023-04-23T01:47:44.488Z,4.90
2023-04-23T01:50:11.391Z,4.53
2023-04-23T01:52:38.108Z,5.05
2023-04-23T01:55:05.362Z,4.65
2023-04-23T01:57:32.617Z,4.43
2023-04-23T02:00:08.288Z,4.80
2023-04-23T02:02:35.760Z,3.97
2023-04-23T02:05:04.777Z,4.95
2023-04-23T02:07:32.240Z,4.72
2023-04-23T02:09:58.964Z,4.65
2023-04-23T02:12:26.275Z,4.70
2023-04-23T02:14:53.978Z,4.22
2023-04-23T02:17:22.979Z,4.65
2023-04-23T02:19:50.075Z,4.60
2023-04-23T02:22:18.142Z,4.95
2023-04-23T02:24:44.787Z,4.60
2023-04-23T02:27:11.490Z,6.35
2023-04-23T02:29:38.217Z,7.38
2023-04-23T02:32:05.109Z,6.38
2023-04-23T02:34:31.740Z,5.18
2023-04-23T02:36:58.663Z,6.53
2023-04-23T02:39:25.672Z,6.45
2023-04-23T02:41:52.336Z,6.10
2023-04-23T02:44:18.953Z,6.90
2023-04-23T02:46:46.314Z,6.13
2023-04-23T02:49:13.948Z,5.25
2023-04-23T02:51:40.681Z,6.38
2023-04-23T02:54:07.616Z,6.93
2023-04-23T02:56:34.233Z,4.78
2023-04-23T02:59:01.531Z,5.05
2023-04-23T03:01:28.267Z,6.45
2023-04-23T03:03:55.548Z,5.10
2023-04-23T03:06:22.400Z,5.20
2023-04-23T03:08:48.980Z,4.97
2023-04-23T03:11:15.618Z,5.53
2023-04-23T03:13:42.362Z,4.03
2023-04-23T03:16:09.277Z,5.10
2023-04-23T03:18:35.907Z,4.82
2023-04-23T03:21:02.489Z,4.68
2023-04-23T03:23:29.745Z,4.95
2023-04-23T03:25:56.332Z,6.55
2023-04-23T03:28:23.030Z,4.40
2023-04-23T03:30:49.813Z,5.13
2023-04-23T03:33:16.522Z,5.15
2023-04-23T03:35:43.260Z,6.07
2023-04-23T03:38:09.921Z,4.40
2023-04-23T03:40:36.560Z,5.28
2023-04-23T03:43:03.191Z,4.68
2023-04-23T03:45:31.258Z,4.30
2023-04-23T03:47:57.876Z,5.68
2023-04-23T03:50:24.509Z,4.97
2023-04-23T03:52:52.713Z,5.63
2023-04-23T03:55:20.697Z,5.25
2023-04-23T03:57:47.309Z,5.50
2023-04-23T04:00:14.749Z,10.18
2023-04-23T04:02:41.617Z,8.38
2023-04-23T04:05:10.228Z,5.85
2023-04-23T04:07:37.367Z,5.18
2023-04-23T04:10:05.928Z,4.53
2023-04-23T04:12:32.610Z,5.30
2023-04-23T04:14:59.484Z,6.15
2023-04-23T04:17:26.229Z,4.97
2023-04-23T04:19:52.902Z,5.35
2023-04-23T04:22:19.560Z,6.05
2023-04-23T04:24:47.686Z,7.65
2023-04-23T04:27:14.885Z,9.73
2023-04-23T04:29:41.530Z,7.47
2023-04-23T04:32:09.631Z,6.53
2023-04-23T04:34:38.445Z,5.05
2023-04-23T04:37:05.607Z,6.68
2023-04-23T04:39:32.242Z,4.65
2023-04-23T04:41:59.974Z,5.55
2023-04-23T04:44:26.610Z,6.43
2023-04-23T04:46:54.010Z,4.78
2023-04-23T04:49:21.894Z,5.85
2023-04-23T04:51:48.609Z,4.28
2023-04-23T04:54:15.466Z,5.38
2023-04-23T04:56:42.100Z,5.00
2023-04-23T04:59:08.728Z,4.80
2023-04-23T05:01:37.238Z,5.63
2023-04-23T05:04:04.224Z,5.05
2023-04-23T05:06:32.422Z,4.88
2023-04-23T05:08:59.250Z,4.55
2023-04-23T05:11:26.016Z,5.60
2023-04-23T05:13:52.688Z,4.68
2023-04-23T05:16:19.547Z,6.05
2023-04-23T05:18:46.718Z,5.38
2023-04-23T05:21:14.440Z,6.30
2023-04-23T05:23:41.082Z,7.80
2023-04-23T05:26:07.803Z,4.80
2023-04-23T05:28:34.709Z,4.65
2023-04-23T05:31:01.632Z,4.57
2023-04-23T05:33:33.385Z,4.70
2023-04-23T05:36:03.093Z,5.65
2023-04-23T05:38:29.851Z,6.25
2023-04-23T05:40:56.530Z,5.80
2023-04-23T05:43:23.161Z,4.90
2023-04-23T05:45:49.803Z,5.65
2023-04-23T05:48:16.473Z,6.60
2023-04-23T05:50:43.325Z,4.60
2023-04-23T05:53:10.007Z,6.90
2023-04-23T05:55:36.758Z,5.53
2023-04-23T05:58:03.374Z,5.43
2023-04-23T06:00:30.126Z,5.28
2023-04-23T06:02:56.860Z,4.00
2023-04-23T06:05:23.873Z,4.90
2023-04-23T06:07:50.783Z,6.90
2023-04-23T06:10:17.421Z,8.05
2023-04-23T06:12:44.036Z,6.95
2023-04-23T06:15:11.482Z,6.30
2023-04-23T06:17:38.748Z,6.15
2023-04-23T06:20:06.498Z,5.10
2023-04-23T06:22:33.423Z,5.70
2023-04-23T06:25:00.192Z,5.57
2023-04-23T06:27:27.259Z,5.57
2023-04-23T06:29:54.057Z,4.50
2023-04-23T06:32:21.607Z,4.78
2023-04-23T06:35:00.339Z,4.35
2023-04-23T06:37:29.761Z,5.72
2023-04-23T06:39:56.744Z,5.93
2023-04-23T06:42:23.615Z,5.10
2023-04-23T06:44:51.964Z,4.70
2023-04-23T06:47:19.728Z,4.57
2023-04-23T06:49:46.533Z,4.30
2023-04-23T06:52:13.265Z,7.03
2023-04-23T06:54:40.161Z,3.20
2023-04-23T06:57:07.157Z,3.88
2023-04-23T06:59:33.815Z,5.57
2023-04-23T07:02:01.064Z,3.83
2023-04-23T07:04:27.765Z,3.55
2023-04-23T07:06:55.124Z,3.75
2023-04-23T07:09:21.884Z,5.18
2023-04-23T07:11:48.557Z,4.18
2023-04-23T07:14:15.200Z,4.25
2023-04-23T07:16:41.864Z,5.05
2023-04-23T07:19:08.517Z,4.95
2023-04-23T07:21:35.934Z,5.13
2023-04-23T07:24:08.627Z,4.32
2023-04-23T07:26:36.198Z,4.70
2023-04-23T07:29:04.574Z,4.85
2023-04-23T07:31:31.218Z,4.15
2023-04-23T07:33:57.976Z,4.72
2023-04-23T07:36:24.699Z,5.05
2023-04-23T07:38:51.315Z,4.22
2023-04-23T07:41:18.511Z,5.55
2023-04-23T07:43:45.244Z,4.28
2023-04-23T07:46:12.189Z,5.00
2023-04-23T07:48:38.883Z,4.03
2023-04-23T07:51:06.959Z,4.25
2023-04-23T07:53:33.821Z,6.18
2023-04-23T07:56:01.039Z,4.63
2023-04-23T07:58:27.713Z,5.75
2023-04-23T08:00:54.421Z,4.28
2023-04-23T08:03:21.274Z,5.72
2023-04-23T08:05:48.211Z,5.45
2023-04-23T08:08:14.925Z,5.28
2023-04-23T08:10:41.940Z,5.90
2023-04-23T08:13:08.923Z,5.63
2023-04-23T08:15:35.868Z,5.80
2023-04-23T08:18:04.262Z,5.38
2023-04-23T08:20:32.254Z,3.92
2023-04-23T08:22:59.068Z,5.45
2023-04-23T08:25:26.062Z,5.03
2023-04-23T08:27:52.818Z,5.18
2023-04-23T08:30:19.623Z,7.15
2023-04-23T08:32:49.693Z,4.53
2023-04-23T08:35:16.388Z,4.97
2023-04-23T08:37:42.982Z,5.00
2023-04-23T08:40:10.068Z,4.20
2023-04-23T08:42:46.465Z,4.65
2023-04-23T08:45:13.971Z,4.47
2023-04-23T08:47:45.003Z,5.60
2023-04-23T08:50:14.153Z,4.10
2023-04-23T08:52:43.036Z,4.70
2023-04-23T08:55:10.839Z,4.90
2023-04-23T08:57:40.280Z,5.40
2023-04-23T09:00:11.752Z,5.65
2023-04-23T09:02:41.752Z,4.25
2023-04-23T09:05:09.374Z,5.32
2023-04-23T09:07:36.782Z,5.47
2023-04-23T09:10:06.053Z,5.75
2023-04-23T09:12:35.921Z,5.25
2023-04-23T09:15:10.479Z,4.15
2023-04-23T09:17:44.128Z,4.18
2023-04-23T09:20:12.540Z,4.72
2023-04-23T09:22:47.333Z,5.40
2023-04-23T09:25:17.497Z,5.22
2023-04-23T09:27:45.123Z,5.97
2023-04-23T09:30:12.341Z,5.38
2023-04-23T09:32:41.573Z,6.00
2023-04-23T09:35:10.669Z,5.28
2023-04-23T09:37:37.572Z,5.72
2023-04-23T09:40:08.824Z,6.75
2023-04-23T09:42:36.715Z,5.45
2023-04-23T09:45:06.432Z,6.20
2023-04-23T09:47:53.891Z,5.38
2023-04-23T09:50:32.500Z,6.05
2023-04-23T09:52:59.123Z,7.20
2023-04-23T09:55:39.578Z,7.18
2023-04-23T09:58:10.962Z,7.07
2023-04-23T10:00:39.083Z,5.28
2023-04-23T10:03:10.096Z,5.80
2023-04-23T10:08:13.962Z,5.82
2023-04-23T10:10:56.784Z,6.90
2023-04-23T10:13:28.491Z,7.13
2023-04-23T10:15:59.102Z,5.20
2023-04-23T10:18:33.074Z,5.30
2023-04-23T10:21:02.670Z,5.80
2023-04-23T10:23:30.965Z,6.63
2023-04-23T10:25:59.577Z,7.88
2023-04-23T10:28:32.006Z,6.70
2023-04-23T10:30:59.964Z,5.45
2023-04-23T10:33:30.857Z,5.47
2023-04-23T10:36:03.010Z,5.25
2023-04-23T10:38:30.327Z,6.90
2023-04-23T10:40:59.128Z,5.88
2023-04-23T10:43:26.318Z,6.82
2023-04-23T10:45:53.885Z,6.18
2023-04-23T10:48:20.940Z,9.70
2023-04-23T10:51:00.293Z,5.80
2023-04-23T10:53:32.463Z,6.05
2023-04-23T10:56:07.732Z,6.07
2023-04-23T10:58:54.827Z,7.03
2023-04-23T11:01:25.549Z,6.70
2023-04-23T11:03:52.548Z,5.97
2023-04-23T11:06:43.461Z,5.82
2023-04-23T11:09:30.753Z,6.25
2023-04-23T11:11:58.206Z,7.07
2023-04-23T11:14:46.720Z,7.07
2023-04-23T11:17:15.972Z,6.68
2023-04-23T11:20:07.181Z,5.72
2023-04-23T11:22:40.086Z,7.78
2023-04-23T11:27:44.742Z,5.40
2023-04-23T11:30:37.849Z,6.80
2023-04-23T11:33:05.629Z,6.38
2023-04-23T11:35:40.086Z,5.65
2023-04-23T11:38:10.449Z,5.28
2023-04-23T11:40:37.351Z,6.80
2023-04-23T11:43:04.437Z,6.63
2023-04-23T11:45:31.127Z,7.07
2023-04-23T11:48:00.892Z,6.68
2023-04-23T11:50:33.356Z,6.07
2023-04-23T11:53:09.312Z,8.75
2023-04-23T11:55:36.181Z,6.20
2023-04-23T11:58:03.528Z,6.55
2023-04-23T12:00:30.405Z,6.15
2023-04-23T12:03:02.434Z,7.85
2023-04-23T12:05:33.850Z,7.10
2023-04-23T12:08:11.749Z,4.57
2023-04-23T12:10:46.779Z,4.53
2023-04-23T12:13:15.554Z,6.32
2023-04-23T12:16:02.603Z,5.55
2023-04-23T12:18:44.215Z,4.78
2023-04-23T12:21:14.800Z,6.15
2023-04-23T12:23:45.078Z,4.53
2023-04-23T12:26:16.023Z,6.03
2023-04-23T12:28:47.399Z,5.93
2023-04-23T12:31:28.972Z,6.07
2023-04-23T12:34:08.648Z,5.50
2023-04-23T12:36:37.097Z,7.28
2023-04-23T12:39:31.935Z,5.78
2023-04-23T12:42:02.807Z,7.35
2023-04-23T12:44:29.751Z,5.47
2023-04-23T12:47:03.781Z,6.85
2023-04-23T12:49:31.469Z,5.18
2023-04-23T12:52:03.406Z,4.55
2023-04-23T12:54:32.639Z,6.23
2023-04-23T12:57:02.799Z,5.57
2023-04-23T12:59:32.813Z,5.70
2023-04-23T13:02:02.462Z,5.30
2023-04-23T13:04:30.640Z,4.63
2023-04-23T13:06:57.268Z,5.68
2023-04-23T13:09:26.868Z,5.25
2023-04-23T13:11:54.474Z,3.88
2023-04-23T13:14:21.716Z,5.40
2023-04-23T13:16:49.055Z,5.57
2023-04-23T13:19:17.517Z,5.75
2023-04-23T13:21:44.900Z,4.38
2023-04-23T13:24:11.931Z,4.78
2023-04-23T13:26:38.736Z,4.68
2023-04-23T13:29:06.180Z,5.47
2023-04-23T13:31:33.222Z,4.10
2023-04-23T13:34:01.585Z,5.47
2023-04-23T13:36:28.231Z,6.28
2023-04-23T13:38:54.956Z,5.72
2023-04-23T13:41:21.714Z,4.40
2023-04-23T13:43:48.350Z,5.57
2023-04-23T13:46:15.047Z,5.20
2023-04-23T13:48:41.795Z,5.50
2023-04-23T13:51:17.965Z,5.50
2023-04-23T13:53:53.241Z,4.50
2023-04-23T13:56:19.967Z,5.80
2023-04-23T13:58:48.403Z,4.70
2023-04-23T14:01:16.093Z,5.82
2023-04-23T14:03:42.781Z,4.82
2023-04-23T14:06:09.454Z,5.10
2023-04-23T14:08:36.926Z,5.80
2023-04-23T14:11:04.542Z,4.78
2023-04-23T14:13:32.486Z,5.30
2023-04-23T14:16:02.030Z,6.38
2023-04-23T14:18:30.408Z,4.93
2023-04-23T14:20:57.206Z,5.50
2023-04-23T14:23:23.772Z,6.03
2023-04-23T14:26:13.379Z,5.30
2023-04-23T14:28:45.302Z,7.63
2023-04-23T14:31:12.023Z,5.73
2023-04-23T14:33:38.700Z,5.93
2023-04-23T14:36:05.857Z,5.18
2023-04-23T14:38:32.509Z,6.68
2023-04-23T14:40:59.142Z,5.70
2023-04-23T14:43:25.921Z,6.15
2023-04-23T14:45:52.618Z,6.13
2023-04-23T14:48:19.312Z,6.80
2023-04-23T14:50:46.089Z,5.97
2023-04-23T14:53:12.852Z,5.72
2023-04-23T14:55:42.856Z,6.35
2023-04-23T14:58:09.580Z,5.68
2023-04-23T15:00:36.281Z,6.18
2023-04-23T15:03:08.415Z,4.75
2023-04-23T15:05:35.246Z,4.43
2023-04-23T15:08:01.889Z,5.82
2023-04-23T15:10:28.514Z,4.65
2023-04-23T15:13:03.532Z,5.78
2023-04-23T15:15:45.406Z,5.35
2023-04-23T15:18:14.456Z,5.15
2023-04-23T15:20:42.104Z,5.18
2023-04-23T15:23:09.539Z,5.72
2023-04-23T15:25:36.990Z,6.50
2023-04-23T15:28:04.069Z,5.20
2023-04-23T15:30:30.672Z,5.78
2023-04-23T15:32:57.615Z,5.00
2023-04-23T15:35:26.075Z,6.18
2023-04-23T15:37:53.499Z,5.70
2023-04-23T15:40:20.163Z,4.93
2023-04-23T15:42:47.391Z,5.88
2023-04-23T15:45:14.137Z,5.88
2023-04-23T15:47:42.174Z,4.47
2023-04-23T15:50:10.321Z,4.20
2023-04-23T15:52:37.913Z,5.70
2023-04-23T15:55:05.690Z,4.97
2023-04-23T15:57:32.336Z,6.68
2023-04-23T15:59:59.176Z,4.53
2023-04-23T16:02:26.171Z,6.05
2023-04-23T16:04:52.974Z,5.93
2023-04-23T16:07:19.699Z,4.78
2023-04-23T16:09:46.384Z,6.15
2023-04-23T16:12:13.088Z,4.60
2023-04-23T16:14:40.490Z,5.10
2023-04-23T16:17:07.276Z,6.13
2023-04-23T16:19:34.074Z,4.65
2023-04-23T16:22:00.706Z,6.30
2023-04-23T16:24:27.343Z,5.93
2023-04-23T16:26:54.014Z,5.45
2023-04-23T16:29:23.031Z,4.50
2023-04-23T16:31:49.947Z,5.30
2023-04-23T16:34:16.749Z,4.68
2023-04-23T16:36:43.522Z,4.72
2023-04-23T16:39:11.212Z,4.95
2023-04-23T16:41:38.208Z,4.63
2023-04-23T16:44:04.951Z,5.72
2023-04-23T16:46:32.096Z,5.18
2023-04-23T16:48:59.485Z,5.05
2023-04-23T16:51:26.975Z,5.18
2023-04-23T16:53:53.876Z,5.90
2023-04-23T16:56:21.175Z,4.40
2023-04-23T16:58:47.972Z,5.22
2023-04-23T17:01:15.672Z,6.05
2023-04-23T17:03:42.712Z,4.88
2023-04-23T17:06:20.795Z,7.28
2023-04-23T17:08:47.489Z,5.40
2023-04-23T17:11:14.185Z,5.60
2023-04-23T17:13:43.548Z,6.22
2023-04-23T17:16:10.608Z,6.35
2023-04-23T17:18:37.303Z,9.15
2023-04-23T17:21:04.029Z,7.43
2023-04-23T17:23:30.650Z,7.13
2023-04-23T17:25:57.236Z,6.88
2023-04-23T17:28:23.918Z,6.75
2023-04-23T17:30:50.795Z,7.95
2023-04-23T17:33:18.081Z,7.60
2023-04-23T17:35:44.927Z,7.10
2023-04-23T17:38:12.659Z,7.55
2023-04-23T17:40:39.553Z,8.05
2023-04-23T17:43:06.761Z,8.30
2023-04-23T17:45:33.380Z,6.80
2023-04-23T17:48:00.206Z,7.20
2023-04-23T17:50:28.380Z,7.28
2023-04-23T17:52:55.374Z,8.10
2023-04-23T17:55:22.108Z,7.38
2023-04-23T17:57:49.085Z,7.03
2023-04-23T18:00:17.698Z,7.47
2023-04-23T18:02:45.984Z,9.30
2023-04-23T18:05:14.623Z,8.32
2023-04-23T18:07:42.946Z,8.98
2023-04-23T18:10:12.157Z,8.00
2023-04-23T18:12:39.614Z,7.90
2023-04-23T18:15:06.873Z,7.95
2023-04-23T18:17:33.530Z,11.95
2023-04-23T18:20:01.121Z,7.30
2023-04-23T18:22:27.789Z,8.20
2023-04-23T18:24:54.980Z,7.55
2023-04-23T18:27:21.591Z,7.70
2023-04-23T18:29:48.216Z,7.30
2023-04-23T18:32:27.623Z,9.23
2023-04-23T18:37:42.291Z,10.52
2023-04-23T18:40:10.116Z,7.80
2023-04-23T18:42:36.853Z,8.40
2023-04-23T18:45:04.441Z,8.43
2023-04-23T18:47:36.924Z,7.88
2023-04-23T18:50:09.424Z,9.55
2023-04-23T18:52:36.760Z,7.30
2023-04-23T18:55:03.482Z,8.88
2023-04-23T18:57:30.096Z,6.88
2023-04-23T18:59:56.792Z,8.02
2023-04-23T19:02:34.489Z,7.07
2023-04-23T19:05:02.902Z,7.25
2023-04-23T19:07:29.592Z,8.77
2023-04-23T19:09:56.252Z,10.68
2023-04-23T19:12:22.863Z,9.50
2023-04-23T19:14:49.451Z,10.15
2023-04-23T19:17:18.493Z,8.68
2023-04-23T19:19:45.613Z,7.18
2023-04-23T19:22:12.230Z,8.38
2023-04-23T19:24:38.831Z,8.00
2023-04-23T19:27:07.159Z,8.40
2023-04-23T19:29:33.774Z,8.88
2023-04-23T19:32:00.421Z,7.53
2023-04-23T19:34:27.306Z,9.43
2023-04-23T19:36:53.929Z,8.73
2023-04-23T19:39:23.260Z,7.63
2023-04-23T19:41:49.901Z,7.90
2023-04-23T19:44:16.507Z,7.72
2023-04-23T19:46:43.158Z,8.80
2023-04-23T19:49:09.828Z,6.85
2023-04-23T19:51:38.183Z,7.05
2023-04-23T19:54:05.356Z,8.20
2023-04-23T19:56:32.050Z,7.75
2023-04-23T19:58:58.702Z,6.55
2023-04-23T20:01:28.167Z,6.53
2023-04-23T20:03:55.739Z,6.15
2023-04-23T20:06:22.428Z,6.88
2023-04-23T20:09:07.779Z,6.28
2023-04-23T20:11:36.021Z,7.70
2023-04-23T20:14:03.815Z,8.25
2023-04-23T20:16:30.698Z,8.07
2023-04-23T20:18:57.795Z,7.03
2023-04-23T20:21:24.705Z,6.97
2023-04-23T20:23:51.430Z,7.30
2023-04-23T20:26:19.306Z,8.18
2023-04-23T20:28:48.267Z,8.15
2023-04-23T20:31:15.603Z,8.55
2023-04-23T20:33:42.227Z,7.75
2023-04-23T20:36:10.877Z,7.40
2023-04-23T20:38:39.037Z,5.32
2023-04-23T20:41:06.090Z,5.07
2023-04-23T20:43:34.374Z,6.22
2023-04-23T20:46:01.693Z,5.28
2023-04-23T20:48:30.026Z,5.25
2023-04-23T20:50:57.917Z,5.68
2023-04-23T20:53:24.589Z,3.85
2023-04-23T20:55:51.412Z,5.55
2023-04-23T20:58:18.061Z,2.63
2023-04-23T21:00:44.685Z,4.70
2023-04-23T21:03:11.967Z,2.63
2023-04-23T21:05:40.515Z,3.33
2023-04-23T21:08:07.964Z,2.20
2023-04-23T21:10:34.636Z,2.20
2023-04-23T21:13:01.569Z,3.05
2023-04-23T21:15:29.745Z,2.90
2023-04-23T21:17:56.583Z,3.67
2023-04-23T21:20:23.520Z,2.45
2023-04-23T21:22:50.432Z,3.25
2023-04-23T21:25:17.466Z,2.20
2023-04-23T21:27:45.986Z,2.13
2023-04-23T21:30:34.243Z,1.98
2023-04-23T21:33:00.926Z,2.35
2023-04-23T21:35:27.561Z,2.10
2023-04-23T21:37:54.189Z,1.35
2023-04-23T21:40:20.817Z,1.30
2023-04-23T21:42:47.723Z,1.40
2023-04-23T21:45:14.376Z,2.63
2023-04-23T21:47:41.406Z,2.35
2023-04-23T21:50:09.938Z,2.22
2023-04-23T21:52:39.400Z,2.05
2023-04-23T21:55:06.480Z,2.38
2023-04-23T21:57:35.979Z,2.20
2023-04-23T22:00:02.686Z,1.52
2023-04-23T22:02:29.566Z,2.13
2023-04-23T22:04:56.364Z,3.17
2023-04-23T22:07:22.957Z,2.25
2023-04-23T22:09:49.643Z,1.95
2023-04-23T22:12:16.241Z,1.30
2023-04-23T22:14:42.893Z,1.45
2023-04-23T22:17:09.602Z,1.40
2023-04-23T22:19:36.312Z,1.85
2023-04-23T22:22:03.037Z,3.15
2023-04-23T22:24:29.707Z,1.85
2023-04-23T22:26:56.317Z,2.10
2023-04-23T22:29:22.953Z,2.67
2023-04-23T22:31:49.593Z,1.42
2023-04-23T22:34:16.283Z,3.10
2023-04-23T22:36:43.271Z,2.05
2023-04-23T22:39:10.798Z,3.47
2023-04-23T22:41:38.872Z,2.75
2023-04-23T22:44:05.539Z,2.22
2023-04-23T22:46:32.302Z,2.78
2023-04-23T22:49:01.278Z,3.15
2023-04-23T22:51:28.036Z,2.55
2023-04-23T22:53:54.629Z,2.40
2023-04-23T22:56:21.292Z,1.98
2023-04-23T22:58:47.961Z,3.00
2023-04-23T23:01:14.618Z,2.60
2023-04-23T23:03:41.315Z,2.00
2023-04-23T23:06:08.000Z,3.10
2023-04-23T23:08:34.602Z,1.55
2023-04-23T23:11:01.202Z,1.95
2023-04-23T23:13:28.045Z,1.85
2023-04-23T23:15:54.688Z,2.15
2023-04-23T23:18:21.364Z,2.03
2023-04-23T23:20:47.956Z,4.30
2023-04-23T23:23:14.587Z,2.72
2023-04-23T23:25:41.229Z,3.38
2023-04-23T23:28:07.856Z,1.58
2023-04-23T23:30:34.520Z,2.60
2023-04-23T23:33:01.292Z,3.03
2023-04-23T23:35:27.960Z,2.38
2023-04-23T23:37:54.607Z,3.40
2023-04-23T23:40:21.309Z,2.35
2023-04-23T23:42:47.895Z,1.33
2023-04-23T23:45:14.538Z,2.95
2023-04-23T23:47:41.215Z,2.85
2023-04-23T23:50:08.477Z,2.03
2023-04-23T23:52:35.112Z,1.90
2023-04-23T23:55:01.809Z,3.00
2023-04-23T23:57:28.524Z,2.30
2023-04-23T23:59:55.972Z,3.58
